Time;durP1;ratioP1;P1;durP2;ratioP2;P2;SDS_P1;SDS_P2;PMS_P1;PMS_P2;Temp;Humidity;BMP_temperature;BMP_pressure;BME280_temperature;BME280_humidity;BME280_pressure;Samples;Min_cycle;Max_cycle;Signal;HPM_P1;HPM_P2
2023/12/19 00:00:07;;;;;;;17.37;13.67;;;8.30;62.50;;;;;;348259;28;967;-57
2023/12/19 00:00:18;;;;;;;18.20;14.35;;;8.30;62.50;;;;;;348248;28;1981;-58
2023/12/19 00:00:29;;;;;;;19.15;14.10;;;8.30;62.60;;;;;;348211;28;1035;-57
2023/12/19 00:00:40;;;;;;;18.60;14.07;;;8.30;62.60;;;;;;348272;28;1008;-57
2023/12/19 00:00:51;;;;;;;18.70;14.05;;;8.30;62.60;;;;;;348140;28;1902;-57
2023/12/19 00:01:02;;;;;;;18.40;13.60;;;8.30;62.50;;;;;;348271;28;1003;-57
2023/12/19 00:01:12;;;;;;;18.03;12.83;;;8.30;62.50;;;;;;348229;28;964;-57
2023/12/19 00:01:23;;;;;;;17.90;12.40;;;8.30;62.50;;;;;;348423;28;841;-56
2023/12/19 00:01:34;;;;;;;18.38;12.68;;;8.30;62.50;;;;;;348260;28;1130;-57
2023/12/19 00:01:48;;;;;;;19.10;13.32;;;8.30;62.50;;;;;;348366;28;1027;-56
2023/12/19 00:01:59;;;;;;;17.70;13.13;;;8.30;62.50;;;;;;348352;28;1035;-56
2023/12/19 00:02:10;;;;;;;18.45;13.05;;;8.40;62.50;;;;;;348365;28;1004;-56
2023/12/19 00:02:20;;;;;;;18.25;12.55;;;8.30;62.50;;;;;;348263;28;1075;-57
2023/12/19 00:02:31;;;;;;;16.03;11.97;;;8.30;62.50;;;;;;348397;28;1035;-58
2023/12/19 00:02:42;;;;;;;14.30;11.77;;;8.30;62.50;;;;;;348290;28;983;-57
2023/12/19 00:02:53;;;;;;;14.98;11.75;;;8.30;62.40;;;;;;348397;28;1504;-57
2023/12/19 00:03:03;;;;;;;16.10;12.13;;;8.40;62.40;;;;;;348209;28;1183;-58
2023/12/19 00:03:14;;;;;;;17.90;12.30;;;8.40;62.40;;;;;;348363;28;1280;-56
2023/12/19 00:03:25;;;;;;;17.05;12.23;;;8.30;62.40;;;;;;348286;28;1082;-57
2023/12/19 00:03:36;;;;;;;16.10;12.20;;;8.40;62.40;;;;;;348439;28;1011;-55
2023/12/19 00:03:47;;;;;;;14.70;11.93;;;8.40;62.30;;;;;;348386;28;842;-56
2023/12/19 00:03:57;;;;;;;14.60;11.75;;;8.30;62.30;;;;;;348261;28;1071;-56
2023/12/19 00:04:08;;;;;;;14.18;11.10;;;8.40;62.20;;;;;;348371;28;996;-57
2023/12/19 00:04:19;;;;;;;14.32;10.93;;;8.40;62.20;;;;;;348432;28;817;-57
2023/12/19 00:04:34;;;;;;;14.23;10.70;;;8.40;62.20;;;;;;348268;28;1193;-58
2023/12/19 00:04:45;;;;;;;14.45;11.10;;;8.40;62.20;;;;;;348361;28;1506;-59
2023/12/19 00:04:56;;;;;;;14.10;11.18;;;8.30;62.20;;;;;;348301;28;1003;-57
2023/12/19 00:05:09;;;;;;;14.23;11.15;;;8.30;62.20;;;;;;348315;28;1304;-57
2023/12/19 00:05:20;;;;;;;13.40;10.75;;;8.30;62.10;;;;;;348366;28;1019;-57
2023/12/19 00:05:30;;;;;;;13.02;10.75;;;8.30;62.00;;;;;;348310;28;1754;-57
2023/12/19 00:05:41;;;;;;;13.20;10.30;;;8.40;62.00;;;;;;348331;28;1012;-57
2023/12/19 00:05:52;;;;;;;14.03;10.63;;;8.40;61.90;;;;;;348430;28;837;-57
2023/12/19 00:06:03;;;;;;;13.77;10.60;;;8.40;61.80;;;;;;348301;28;871;-57
2023/12/19 00:06:14;;;;;;;13.80;10.88;;;8.30;61.80;;;;;;348381;28;1019;-57
2023/12/19 00:06:24;;;;;;;14.68;10.88;;;8.40;61.70;;;;;;348366;28;1920;-58
2023/12/19 00:06:35;;;;;;;16.30;11.07;;;8.40;61.70;;;;;;348297;28;1023;-57
2023/12/19 00:06:46;;;;;;;15.68;10.88;;;8.30;61.60;;;;;;348397;28;1062;-57
2023/12/19 00:06:57;;;;;;;14.17;10.73;;;8.30;61.60;;;;;;348389;28;805;-58
2023/12/19 00:07:07;;;;;;;12.68;10.30;;;8.40;61.50;;;;;;348301;28;1319;-57
2023/12/19 00:07:18;;;;;;;12.52;10.05;;;8.40;61.50;;;;;;348425;28;959;-56
2023/12/19 00:07:29;;;;;;;13.15;9.85;;;8.40;61.40;;;;;;348313;28;1044;-57
2023/12/19 00:07:40;;;;;;;12.95;9.63;;;8.40;61.40;;;;;;348330;28;980;-57
2023/12/19 00:07:51;;;;;;;13.77;9.50;;;8.40;61.30;;;;;;348313;28;1692;-57
2023/12/19 00:08:02;;;;;;;13.25;9.43;;;8.30;61.30;;;;;;348432;28;833;-57
2023/12/19 00:08:13;;;;;;;13.55;9.70;;;8.30;61.30;;;;;;348278;28;1047;-57
2023/12/19 00:08:23;;;;;;;12.88;9.55;;;8.30;61.20;;;;;;348399;28;790;-57
2023/12/19 00:08:36;;;;;;;13.57;9.60;;;8.30;61.30;;;;;;348251;28;1505;-57
2023/12/19 00:08:47;;;;;;;12.57;9.55;;;8.30;61.30;;;;;;348306;28;888;-57
2023/12/19 00:08:57;;;;;;;11.45;9.55;;;8.30;61.20;;;;;;348331;28;1372;-57
2023/12/19 00:09:08;;;;;;;11.47;9.40;;;8.30;61.30;;;;;;348277;28;1027;-55
2023/12/19 00:09:21;;;;;;;11.35;9.15;;;8.30;61.30;;;;;;348351;28;1043;-56
2023/12/19 00:09:31;;;;;;;12.00;8.65;;;8.30;61.30;;;;;;348242;28;1032;-56
2023/12/19 00:09:42;;;;;;;11.93;8.63;;;8.30;61.20;;;;;;348373;28;884;-57
2023/12/19 00:09:53;;;;;;;13.77;9.10;;;8.30;61.10;;;;;;348425;28;833;-57
2023/12/19 00:10:04;;;;;;;13.70;9.43;;;8.30;61.00;;;;;;348332;28;915;-56
2023/12/19 00:10:15;;;;;;;12.98;9.38;;;8.30;61.00;;;;;;348387;28;1066;-56
2023/12/19 00:10:26;;;;;;;12.43;9.77;;;8.30;61.00;;;;;;348259;28;1191;-55
2023/12/19 00:10:37;;;;;;;12.50;9.40;;;8.30;61.00;;;;;;348394;28;820;-57
2023/12/19 00:10:47;;;;;;;13.68;9.48;;;8.30;61.00;;;;;;348329;28;1087;-56
2023/12/19 00:10:58;;;;;;;13.80;9.23;;;8.30;61.10;;;;;;348314;28;951;-56
2023/12/19 00:11:09;;;;;;;14.48;9.35;;;8.30;61.00;;;;;;348307;28;1149;-56
2023/12/19 00:11:20;;;;;;;12.82;9.13;;;8.30;61.00;;;;;;348367;28;1159;-57
2023/12/19 00:11:30;;;;;;;12.60;9.10;;;8.30;61.00;;;;;;348207;28;1336;-56
2023/12/19 00:11:41;;;;;;;11.93;8.80;;;8.30;61.00;;;;;;348332;28;1087;-55
2023/12/19 00:11:52;;;;;;;10.90;8.70;;;8.30;60.90;;;;;;348327;28;1362;-56
2023/12/19 00:12:04;;;;;;;10.80;8.75;;;8.30;60.90;;;;;;348206;28;1025;-56
2023/12/19 00:12:15;;;;;;;10.43;8.80;;;8.30;61.00;;;;;;348376;28;1950;-57
2023/12/19 00:12:25;;;;;;;10.98;8.95;;;8.30;61.00;;;;;;348285;28;1122;-56
2023/12/19 00:12:37;;;;;;;10.80;8.60;;;8.30;61.00;;;;;;348330;28;1107;-57
2023/12/19 00:12:48;;;;;;;13.50;8.77;;;8.30;61.00;;;;;;348398;28;1015;-56
2023/12/19 00:12:58;;;;;;;14.93;9.10;;;8.30;60.90;;;;;;348288;28;1135;-57
2023/12/19 00:13:09;;;;;;;14.65;9.07;;;8.30;60.80;;;;;;348406;28;1197;-57
2023/12/19 00:13:20;;;;;;;11.73;8.70;;;8.30;60.80;;;;;;348379;28;1114;-57
2023/12/19 00:13:31;;;;;;;11.13;8.65;;;8.30;60.80;;;;;;348254;28;1147;-59
2023/12/19 00:13:41;;;;;;;11.20;8.63;;;8.20;60.80;;;;;;348418;28;1027;-57
2023/12/19 00:13:52;;;;;;;11.68;8.60;;;8.20;60.80;;;;;;348363;28;941;-57
2023/12/19 00:14:03;;;;;;;10.82;8.27;;;8.20;60.90;;;;;;348280;28;1036;-57
2023/12/19 00:14:13;;;;;;;10.13;8.10;;;8.20;60.90;;;;;;348387;28;803;-59
2023/12/19 00:14:24;;;;;;;11.00;8.05;;;8.20;61.00;;;;;;348214;28;1107;-57
2023/12/19 00:14:35;;;;;;;10.82;8.27;;;8.20;61.10;;;;;;348354;28;980;-57
2023/12/19 00:14:46;;;;;;;10.30;8.45;;;8.20;61.10;;;;;;348402;28;1074;-56
2023/12/19 00:14:56;;;;;;;11.37;8.83;;;8.20;61.10;;;;;;348375;28;1012;-56
2023/12/19 00:15:08;;;;;;;12.90;9.13;;;8.20;61.00;;;;;;348362;28;869;-57
2023/12/19 00:15:22;;;;;;;12.98;9.15;;;8.20;61.00;;;;;;348289;28;1012;-57
2023/12/19 00:15:32;;;;;;;11.32;8.73;;;8.20;60.90;;;;;;348311;28;1043;-58
2023/12/19 00:15:43;;;;;;;10.30;8.23;;;8.20;60.90;;;;;;348383;28;1015;-57
2023/12/19 00:15:54;;;;;;;10.13;8.05;;;8.20;60.90;;;;;;348386;28;825;-57
2023/12/19 00:16:05;;;;;;;9.95;8.23;;;8.20;60.90;;;;;;348394;28;876;-57
2023/12/19 00:16:16;;;;;;;10.70;8.48;;;8.20;60.90;;;;;;348297;28;1015;-57
2023/12/19 00:16:26;;;;;;;11.60;8.85;;;8.20;61.00;;;;;;348349;28;1071;-57
2023/12/19 00:16:37;;;;;;;11.75;8.70;;;8.20;61.00;;;;;;348370;28;1035;-57
2023/12/19 00:16:48;;;;;;;11.85;9.15;;;8.20;61.10;;;;;;348413;28;976;-57
2023/12/19 00:17:00;;;;;;;10.40;8.65;;;8.20;61.00;;;;;;348411;28;919;-57
2023/12/19 00:17:10;;;;;;;10.57;8.88;;;8.20;61.00;;;;;;348258;28;1115;-57
2023/12/19 00:17:22;;;;;;;11.65;8.52;;;8.20;60.90;;;;;;348426;28;849;-57
2023/12/19 00:17:32;;;;;;;12.23;8.60;;;8.20;61.00;;;;;;348318;28;1039;-58
2023/12/19 00:17:43;;;;;;;12.00;8.50;;;8.20;61.00;;;;;;348351;28;972;-58
2023/12/19 00:17:54;;;;;;;11.90;8.70;;;8.20;61.00;;;;;;348373;28;1907;-59
2023/12/19 00:18:05;;;;;;;11.77;8.68;;;8.20;61.00;;;;;;348296;28;1050;-57
2023/12/19 00:18:16;;;;;;;12.10;8.75;;;8.20;60.90;;;;;;348368;28;818;-57
2023/12/19 00:18:26;;;;;;;11.82;9.10;;;8.10;61.00;;;;;;348311;28;1139;-57
2023/12/19 00:18:37;;;;;;;11.57;9.40;;;8.20;61.00;;;;;;348408;28;1034;-57
2023/12/19 00:18:48;;;;;;;12.15;9.35;;;8.10;61.00;;;;;;348348;28;893;-57
2023/12/19 00:18:59;;;;;;;11.68;8.88;;;8.20;61.00;;;;;;348242;28;1043;-56
2023/12/19 00:19:09;;;;;;;11.70;8.73;;;8.10;61.00;;;;;;348375;28;1835;-58
2023/12/19 00:19:20;;;;;;;12.20;8.70;;;8.10;60.90;;;;;;348395;28;888;-57
2023/12/19 00:19:31;;;;;;;12.27;8.63;;;8.10;60.90;;;;;;348356;28;1056;-57
2023/12/19 00:19:42;;;;;;;11.02;8.60;;;8.10;60.80;;;;;;348299;28;1030;-58
2023/12/19 00:19:53;;;;;;;10.52;8.77;;;8.10;60.70;;;;;;348297;28;1270;-57
2023/12/19 00:20:04;;;;;;;11.70;8.93;;;8.20;60.70;;;;;;348384;28;1047;-57
2023/12/19 00:20:14;;;;;;;13.18;9.13;;;8.10;60.70;;;;;;348425;28;925;-58
2023/12/19 00:20:25;;;;;;;12.63;9.05;;;8.10;60.70;;;;;;348359;28;877;-56
2023/12/19 00:20:36;;;;;;;11.00;8.55;;;8.10;60.70;;;;;;348342;28;1063;-57
2023/12/19 00:20:47;;;;;;;10.02;8.05;;;8.10;60.80;;;;;;348204;28;1902;-57
2023/12/19 00:20:58;;;;;;;10.47;8.27;;;8.10;60.90;;;;;;348314;28;1032;-56
2023/12/19 00:21:09;;;;;;;11.60;8.73;;;8.10;61.00;;;;;;348285;28;1095;-57
2023/12/19 00:21:20;;;;;;;12.43;9.10;;;8.10;60.90;;;;;;348377;28;1015;-57
2023/12/19 00:21:30;;;;;;;12.10;8.90;;;8.10;60.90;;;;;;348300;28;1039;-57
2023/12/19 00:21:41;;;;;;;12.15;8.50;;;8.10;60.90;;;;;;348329;28;857;-56
2023/12/19 00:21:52;;;;;;;11.93;8.70;;;8.00;61.00;;;;;;348244;28;934;-57
2023/12/19 00:22:03;;;;;;;12.38;9.30;;;8.00;61.00;;;;;;348270;28;1187;-57
2023/12/19 00:22:14;;;;;;;11.88;9.48;;;8.00;61.00;;;;;;348390;28;869;-58
2023/12/19 00:22:25;;;;;;;11.27;9.38;;;8.00;61.00;;;;;;348344;28;885;-56
2023/12/19 00:22:35;;;;;;;10.05;8.65;;;8.00;61.10;;;;;;348280;28;982;-57
2023/12/19 00:22:46;;;;;;;10.77;8.57;;;8.00;61.10;;;;;;348370;28;1015;-57
2023/12/19 00:22:57;;;;;;;11.50;8.50;;;8.00;61.10;;;;;;348338;28;924;-59
2023/12/19 00:23:08;;;;;;;11.48;8.77;;;8.00;61.10;;;;;;348337;28;1031;-57
2023/12/19 00:23:18;;;;;;;11.63;8.82;;;8.00;61.10;;;;;;348235;28;930;-58
2023/12/19 00:23:30;;;;;;;11.48;8.95;;;8.00;61.00;;;;;;348302;28;1071;-57
2023/12/19 00:23:41;;;;;;;11.43;9.13;;;8.00;61.00;;;;;;348378;28;980;-57
2023/12/19 00:23:52;;;;;;;10.75;8.80;;;8.00;61.00;;;;;;348367;28;849;-57
2023/12/19 00:24:03;;;;;;;10.48;8.52;;;8.00;60.90;;;;;;348263;28;1670;-57
2023/12/19 00:24:14;;;;;;;10.15;8.25;;;8.00;60.90;;;;;;348280;28;1336;-56
2023/12/19 00:24:25;;;;;;;10.98;8.52;;;7.90;60.80;;;;;;348348;28;912;-57
2023/12/19 00:24:39;;;;;;;11.13;8.83;;;8.00;60.80;;;;;;348276;28;1099;-57
2023/12/19 00:24:49;;;;;;;12.15;9.23;;;8.00;60.70;;;;;;348368;28;1324;-57
2023/12/19 00:25:00;;;;;;;11.95;9.20;;;7.90;60.70;;;;;;348254;28;1075;-58
2023/12/19 00:25:11;;;;;;;10.95;8.88;;;8.00;60.80;;;;;;348340;28;1047;-57
2023/12/19 00:25:25;;;;;;;10.68;8.82;;;7.90;60.90;;;;;;348338;28;932;-58
2023/12/19 00:25:36;;;;;;;11.07;8.90;;;7.90;61.00;;;;;;348387;28;942;-56
2023/12/19 00:25:47;;;;;;;12.35;8.90;;;7.90;60.90;;;;;;348266;28;1083;-57
2023/12/19 00:25:58;;;;;;;12.20;8.85;;;7.90;60.90;;;;;;348429;28;991;-58
2023/12/19 00:26:11;;;;;;;11.27;8.80;;;7.90;60.90;;;;;;348325;28;1016;-57
2023/12/19 00:26:22;;;;;;;11.50;8.80;;;7.90;61.00;;;;;;348435;28;877;-57
2023/12/19 00:26:33;;;;;;;11.77;8.68;;;7.90;61.00;;;;;;348276;28;997;-58
2023/12/19 00:26:44;;;;;;;12.23;8.77;;;7.90;61.00;;;;;;348416;28;1103;-58
2023/12/19 00:26:55;;;;;;;11.52;8.77;;;7.90;60.90;;;;;;348349;28;972;-58
2023/12/19 00:27:05;;;;;;;11.20;8.68;;;7.90;60.90;;;;;;348396;28;1058;-57
2023/12/19 00:27:16;;;;;;;11.05;8.40;;;7.90;60.90;;;;;;348326;28;1028;-57
2023/12/19 00:27:27;;;;;;;10.82;8.43;;;7.90;60.90;;;;;;348233;28;1032;-57
2023/12/19 00:27:38;;;;;;;11.13;8.93;;;7.90;60.90;;;;;;348328;28;909;-57
2023/12/19 00:27:49;;;;;;;11.60;9.20;;;7.90;61.00;;;;;;348374;28;1015;-58
2023/12/19 00:28:00;;;;;;;12.48;8.95;;;7.90;60.90;;;;;;348380;28;1095;-56
2023/12/19 00:28:11;;;;;;;12.85;8.95;;;7.80;60.90;;;;;;348287;28;1980;-57
2023/12/19 00:28:22;;;;;;;12.80;9.20;;;7.80;60.90;;;;;;348249;28;911;-58
2023/12/19 00:28:33;;;;;;;12.43;9.27;;;7.80;60.90;;;;;;348316;28;818;-59
2023/12/19 00:28:44;;;;;;;11.57;8.80;;;7.90;60.90;;;;;;348325;28;858;-57
2023/12/19 00:28:54;;;;;;;11.00;8.73;;;7.80;60.80;;;;;;348374;28;1043;-58
2023/12/19 00:29:05;;;;;;;12.20;9.07;;;7.80;60.70;;;;;;348364;28;932;-57
2023/12/19 00:29:16;;;;;;;14.45;9.75;;;7.80;60.70;;;;;;348263;28;1809;-57
2023/12/19 00:29:27;;;;;;;14.23;9.55;;;7.80;60.60;;;;;;348338;28;996;-58
2023/12/19 00:29:37;;;;;;;12.55;9.10;;;7.80;60.60;;;;;;348281;28;1107;-57
2023/12/19 00:29:48;;;;;;;11.37;8.67;;;7.80;60.60;;;;;;348294;28;1300;-57
2023/12/19 00:29:59;;;;;;;11.25;8.45;;;7.80;60.70;;;;;;348279;28;1044;-57
2023/12/19 00:30:10;;;;;;;11.63;9.00;;;7.80;60.80;;;;;;348398;28;853;-58
2023/12/19 00:30:21;;;;;;;11.77;9.05;;;7.80;60.80;;;;;;348353;28;1047;-58
2023/12/19 00:30:32;;;;;;;13.10;9.50;;;7.80;60.90;;;;;;348335;28;1087;-57
2023/12/19 00:30:42;;;;;;;12.80;9.50;;;7.80;60.90;;;;;;348266;28;1028;-57
2023/12/19 00:30:54;;;;;;;13.38;9.38;;;7.80;60.90;;;;;;348430;28;813;-56
2023/12/19 00:31:05;;;;;;;12.52;9.25;;;7.80;61.00;;;;;;348385;28;909;-57
2023/12/19 00:31:20;;;;;;;13.30;9.33;;;7.80;61.00;;;;;;348280;28;1032;-56
2023/12/19 00:31:31;;;;;;;12.75;9.40;;;7.80;61.00;;;;;;348393;28;1114;-58
2023/12/19 00:31:43;;;;;;;13.40;9.48;;;7.80;61.00;;;;;;348404;28;915;-57
2023/12/19 00:31:53;;;;;;;12.32;9.30;;;7.80;61.00;;;;;;348251;28;1460;-57
2023/12/19 00:32:05;;;;;;;12.13;9.00;;;7.80;61.10;;;;;;348386;28;797;-58
2023/12/19 00:32:15;;;;;;;11.38;9.10;;;7.80;61.10;;;;;;348265;28;1247;-57
2023/12/19 00:32:26;;;;;;;11.98;9.23;;;7.80;61.00;;;;;;348346;28;829;-57
2023/12/19 00:32:37;;;;;;;11.85;9.30;;;7.80;61.00;;;;;;348341;28;1087;-57
2023/12/19 00:32:48;;;;;;;12.27;9.30;;;7.70;61.00;;;;;;348300;28;1136;-58
2023/12/19 00:32:59;;;;;;;12.75;9.55;;;7.80;61.00;;;;;;348340;28;1043;-57
2023/12/19 00:33:09;;;;;;;13.48;9.50;;;7.70;61.00;;;;;;348187;28;1070;-57
2023/12/19 00:33:22;;;;;;;12.75;9.50;;;7.70;61.00;;;;;;348359;28;829;-57
2023/12/19 00:33:33;;;;;;;12.73;9.50;;;7.70;60.90;;;;;;348383;28;885;-57
2023/12/19 00:33:43;;;;;;;12.50;9.57;;;7.70;60.90;;;;;;348259;28;1020;-58
2023/12/19 00:33:54;;;;;;;12.45;9.50;;;7.70;61.00;;;;;;348320;28;829;-57
2023/12/19 00:34:05;;;;;;;12.57;9.50;;;7.70;61.00;;;;;;348204;28;1174;-57
2023/12/19 00:34:16;;;;;;;12.00;9.57;;;7.70;61.00;;;;;;348254;28;1388;-58
2023/12/19 00:34:27;;;;;;;11.20;9.45;;;7.70;61.00;;;;;;348386;28;980;-57
2023/12/19 00:34:37;;;;;;;11.03;9.07;;;7.70;61.10;;;;;;348253;28;1624;-57
2023/12/19 00:34:48;;;;;;;11.43;9.13;;;7.70;61.10;;;;;;348284;28;1115;-58
2023/12/19 00:34:59;;;;;;;12.52;9.40;;;7.70;61.10;;;;;;348184;28;1545;-57
2023/12/19 00:35:11;;;;;;;12.98;9.85;;;7.70;61.10;;;;;;348197;28;1169;-57
2023/12/19 00:35:22;;;;;;;12.98;9.63;;;7.70;61.10;;;;;;348306;28;832;-58
2023/12/19 00:35:33;;;;;;;12.50;9.43;;;7.70;61.20;;;;;;348371;28;801;-58
2023/12/19 00:35:45;;;;;;;11.43;9.38;;;7.70;61.20;;;;;;348336;28;971;-57
2023/12/19 00:35:56;;;;;;;12.65;9.57;;;7.70;61.20;;;;;;348238;28;1349;-57
2023/12/19 00:36:06;;;;;;;13.60;9.88;;;7.70;61.30;;;;;;348334;28;1082;-57
2023/12/19 00:36:21;;;;;;;13.50;10.27;;;7.70;61.40;;;;;;348359;28;836;-57
2023/12/19 00:36:32;;;;;;;13.10;10.28;;;7.70;61.40;;;;;;348344;28;989;-58
2023/12/19 00:36:43;;;;;;;12.17;9.83;;;7.70;61.40;;;;;;348234;28;923;-58
2023/12/19 00:36:54;;;;;;;12.93;9.75;;;7.70;61.40;;;;;;348311;28;1077;-57
2023/12/19 00:37:04;;;;;;;13.05;9.88;;;7.70;61.30;;;;;;348301;28;852;-57
2023/12/19 00:37:15;;;;;;;13.30;9.90;;;7.70;61.30;;;;;;348355;28;857;-57
2023/12/19 00:37:26;;;;;;;13.02;9.90;;;7.70;61.30;;;;;;348331;28;1101;-58
2023/12/19 00:37:37;;;;;;;12.68;9.75;;;7.70;61.30;;;;;;348310;28;1058;-58
2023/12/19 00:37:48;;;;;;;12.43;10.00;;;7.70;61.30;;;;;;348311;28;1353;-56
2023/12/19 00:37:59;;;;;;;12.13;10.00;;;7.70;61.30;;;;;;348370;28;1075;-57
2023/12/19 00:38:09;;;;;;;13.07;10.07;;;7.70;61.30;;;;;;348442;28;868;-57
2023/12/19 00:38:20;;;;;;;14.02;10.05;;;7.70;61.30;;;;;;348281;28;1090;-57
2023/12/19 00:38:31;;;;;;;14.32;10.07;;;7.70;61.30;;;;;;348304;28;1001;-58
2023/12/19 00:38:42;;;;;;;13.43;10.10;;;7.70;61.20;;;;;;348332;28;879;-57
2023/12/19 00:38:53;;;;;;;13.60;10.05;;;7.70;61.20;;;;;;348407;28;867;-56
2023/12/19 00:39:04;;;;;;;15.80;10.25;;;7.70;61.30;;;;;;348319;28;987;-56
2023/12/19 00:39:15;;;;;;;16.58;10.10;;;7.70;61.30;;;;;;348385;28;1030;-57
2023/12/19 00:39:29;;;;;;;15.13;9.60;;;7.70;61.30;;;;;;348269;28;979;-57
2023/12/19 00:39:40;;;;;;;12.50;9.15;;;7.70;61.40;;;;;;348333;28;1612;-57
2023/12/19 00:39:51;;;;;;;11.75;9.00;;;7.70;61.40;;;;;;348344;28;988;-56
2023/12/19 00:40:03;;;;;;;12.30;8.75;;;7.70;61.40;;;;;;348250;28;1082;-57
2023/12/19 00:40:14;;;;;;;12.73;8.43;;;7.70;61.40;;;;;;348319;28;1019;-59
2023/12/19 00:40:25;;;;;;;12.07;8.70;;;7.70;61.40;;;;;;348329;28;853;-58
2023/12/19 00:40:36;;;;;;;12.85;9.00;;;7.70;61.30;;;;;;348210;28;1865;-56
2023/12/19 00:40:47;;;;;;;12.00;8.75;;;7.70;61.30;;;;;;348328;28;1957;-58
2023/12/19 00:40:58;;;;;;;11.32;8.73;;;7.70;61.20;;;;;;348270;28;979;-58
2023/12/19 00:41:08;;;;;;;11.73;8.77;;;7.70;61.30;;;;;;348262;28;1041;-57
2023/12/19 00:41:20;;;;;;;11.60;9.07;;;7.70;61.30;;;;;;348273;28;1162;-57
2023/12/19 00:41:31;;;;;;;12.00;8.77;;;7.70;61.40;;;;;;348267;28;1278;-57
2023/12/19 00:41:42;;;;;;;12.13;8.77;;;7.70;61.50;;;;;;348227;28;1149;-57
2023/12/19 00:41:53;;;;;;;12.50;8.80;;;7.70;61.50;;;;;;348358;28;992;-56
2023/12/19 00:42:04;;;;;;;11.95;8.85;;;7.60;61.50;;;;;;348338;28;983;-57
2023/12/19 00:42:15;;;;;;;12.07;8.88;;;7.60;61.50;;;;;;348333;28;931;-56
2023/12/19 00:42:25;;;;;;;13.10;9.10;;;7.70;61.50;;;;;;348272;28;1936;-56
2023/12/19 00:42:36;;;;;;;13.77;9.40;;;7.70;61.50;;;;;;348254;28;1043;-58
2023/12/19 00:42:47;;;;;;;12.00;9.20;;;7.70;61.50;;;;;;348297;28;975;-57
2023/12/19 00:42:58;;;;;;;11.68;8.98;;;7.70;61.50;;;;;;348260;28;1076;-58
2023/12/19 00:43:08;;;;;;;10.63;8.43;;;7.70;61.50;;;;;;348290;28;868;-57
2023/12/19 00:43:19;;;;;;;11.10;8.57;;;7.60;61.50;;;;;;348258;28;1097;-57
2023/12/19 00:43:30;;;;;;;11.93;8.63;;;7.60;61.60;;;;;;348286;28;1007;-57
2023/12/19 00:43:43;;;;;;;11.75;8.68;;;7.70;61.60;;;;;;348258;28;997;-58
2023/12/19 00:43:55;;;;;;;12.30;8.68;;;7.70;61.60;;;;;;348300;28;1891;-57
2023/12/19 00:44:05;;;;;;;11.70;8.88;;;7.70;61.60;;;;;;348188;28;1454;-56
2023/12/19 00:44:16;;;;;;;10.88;8.45;;;7.60;61.60;;;;;;348362;28;1047;-58
2023/12/19 00:44:27;;;;;;;10.90;8.43;;;7.70;61.70;;;;;;348239;28;1169;-58
2023/12/19 00:44:37;;;;;;;10.93;8.70;;;7.70;61.60;;;;;;348273;28;1007;-58
2023/12/19 00:44:48;;;;;;;11.33;9.03;;;7.70;61.70;;;;;;348243;28;921;-58
2023/12/19 00:44:59;;;;;;;10.75;8.93;;;7.60;61.70;;;;;;348343;28;1063;-57
2023/12/19 00:45:11;;;;;;;11.30;9.15;;;7.60;61.70;;;;;;348251;28;987;-57
2023/12/19 00:45:21;;;;;;;12.60;9.32;;;7.60;61.70;;;;;;348350;28;867;-56
2023/12/19 00:45:32;;;;;;;13.17;9.30;;;7.60;61.80;;;;;;348236;28;1796;-57
2023/12/19 00:45:43;;;;;;;13.02;9.27;;;7.60;61.80;;;;;;348331;28;1866;-58
2023/12/19 00:45:54;;;;;;;11.52;9.15;;;7.60;61.80;;;;;;348304;28;1015;-56
2023/12/19 00:46:04;;;;;;;11.57;9.18;;;7.60;61.80;;;;;;348326;28;827;-57
2023/12/19 00:46:15;;;;;;;12.50;9.27;;;7.60;61.80;;;;;;348277;28;1002;-57
2023/12/19 00:46:26;;;;;;;12.97;9.07;;;7.60;61.80;;;;;;348289;28;1013;-57
2023/12/19 00:46:37;;;;;;;12.75;8.73;;;7.60;61.90;;;;;;348273;28;1068;-57
2023/12/19 00:46:47;;;;;;;12.27;8.82;;;7.60;61.90;;;;;;348336;28;888;-57
2023/12/19 00:46:58;;;;;;;11.68;8.98;;;7.60;61.90;;;;;;348216;28;918;-56
2023/12/19 00:47:09;;;;;;;13.55;9.25;;;7.60;61.90;;;;;;348337;28;1134;-57
2023/12/19 00:47:20;;;;;;;14.15;9.00;;;7.60;61.80;;;;;;348241;28;913;-57
2023/12/19 00:47:31;;;;;;;14.93;8.90;;;7.60;61.80;;;;;;348278;28;1042;-57
2023/12/19 00:47:42;;;;;;;12.55;8.43;;;7.60;61.90;;;;;;348241;28;1031;-59
2023/12/19 00:47:53;;;;;;;12.18;8.63;;;7.70;61.90;;;;;;348330;28;988;-56
2023/12/19 00:48:04;;;;;;;13.07;8.77;;;7.60;61.90;;;;;;348298;28;899;-57
2023/12/19 00:48:15;;;;;;;13.98;8.98;;;7.60;61.90;;;;;;348197;28;959;-58
2023/12/19 00:48:26;;;;;;;14.13;8.80;;;7.60;61.90;;;;;;348191;28;1111;-56
2023/12/19 00:48:37;;;;;;;13.27;9.10;;;7.70;61.90;;;;;;348252;28;1030;-55
2023/12/19 00:48:48;;;;;;;12.52;9.02;;;7.60;61.90;;;;;;348199;28;1011;-57
2023/12/19 00:48:59;;;;;;;12.45;9.02;;;7.60;61.90;;;;;;348161;28;1061;-57
2023/12/19 00:49:10;;;;;;;12.63;8.88;;;7.60;61.90;;;;;;348227;28;1015;-58
2023/12/19 00:49:21;;;;;;;12.40;8.80;;;7.70;62.00;;;;;;348243;28;850;-57
2023/12/19 00:49:32;;;;;;;11.87;8.73;;;7.60;62.00;;;;;;348148;28;1074;-57
2023/12/19 00:49:43;;;;;;;11.13;8.77;;;7.60;62.10;;;;;;348213;28;1094;-56
2023/12/19 00:49:54;;;;;;;11.63;8.45;;;7.60;62.00;;;;;;348264;28;909;-56
2023/12/19 00:50:07;;;;;;;12.57;8.57;;;7.60;62.00;;;;;;348150;28;1153;-56
2023/12/19 00:50:18;;;;;;;12.73;8.98;;;7.60;62.00;;;;;;348361;28;908;-56
2023/12/19 00:50:29;;;;;;;11.50;9.30;;;7.60;62.00;;;;;;348388;28;940;-57
2023/12/19 00:50:40;;;;;;;11.37;9.23;;;7.60;62.00;;;;;;348267;28;893;-57
2023/12/19 00:50:50;;;;;;;11.20;9.02;;;7.60;62.00;;;;;;348281;28;1075;-57
2023/12/19 00:51:01;;;;;;;11.43;8.85;;;7.60;62.00;;;;;;348364;28;816;-56
2023/12/19 00:51:12;;;;;;;11.23;8.45;;;7.60;62.00;;;;;;348260;28;1035;-57
2023/12/19 00:51:23;;;;;;;12.32;8.82;;;7.60;62.00;;;;;;348424;28;805;-57
2023/12/19 00:51:34;;;;;;;12.73;9.23;;;7.60;61.90;;;;;;348274;28;1951;-57
2023/12/19 00:51:44;;;;;;;13.83;9.43;;;7.60;61.90;;;;;;348265;28;951;-56
2023/12/19 00:51:55;;;;;;;12.52;9.55;;;7.70;61.90;;;;;;348317;28;1042;-57
2023/12/19 00:52:06;;;;;;;12.55;9.60;;;7.60;61.90;;;;;;348318;28;1127;-58
2023/12/19 00:52:17;;;;;;;12.45;9.50;;;7.60;62.00;;;;;;348229;28;1027;-57
2023/12/19 00:52:29;;;;;;;14.10;9.50;;;7.60;62.00;;;;;;348264;28;1158;-57
2023/12/19 00:52:41;;;;;;;13.95;9.40;;;7.60;62.00;;;;;;348346;28;841;-57
2023/12/19 00:52:51;;;;;;;12.32;9.07;;;7.60;62.00;;;;;;348263;28;1121;-56
2023/12/19 00:53:02;;;;;;;11.75;8.98;;;7.60;62.00;;;;;;348257;28;972;-57
2023/12/19 00:53:13;;;;;;;11.07;8.93;;;7.60;62.00;;;;;;348372;28;1106;-57
2023/12/19 00:53:24;;;;;;;11.03;9.00;;;7.60;62.10;;;;;;348253;28;925;-59
2023/12/19 00:53:35;;;;;;;11.68;9.20;;;7.60;62.10;;;;;;348312;28;1059;-56
2023/12/19 00:53:45;;;;;;;12.00;9.35;;;7.60;62.00;;;;;;348229;28;1497;-56
2023/12/19 00:53:56;;;;;;;12.00;9.30;;;7.60;62.00;;;;;;348256;28;888;-57
2023/12/19 00:54:07;;;;;;;11.30;9.50;;;7.60;61.90;;;;;;348268;28;1070;-57
2023/12/19 00:54:18;;;;;;;11.27;9.45;;;7.60;62.00;;;;;;348317;28;1868;-58
2023/12/19 00:54:29;;;;;;;11.48;9.50;;;7.60;62.00;;;;;;348254;28;1505;-57
2023/12/19 00:54:40;;;;;;;11.50;9.05;;;7.60;62.00;;;;;;348286;28;822;-57
2023/12/19 00:54:50;;;;;;;12.60;9.13;;;7.60;62.00;;;;;;348296;28;873;-59
2023/12/19 00:55:02;;;;;;;12.93;9.03;;;7.60;62.10;;;;;;348146;28;1107;-58
2023/12/19 00:55:12;;;;;;;13.45;9.48;;;7.60;62.10;;;;;;348284;28;1317;-57
2023/12/19 00:55:24;;;;;;;12.43;9.53;;;7.60;62.00;;;;;;348369;28;858;-57
2023/12/19 00:55:35;;;;;;;12.68;9.50;;;7.60;62.00;;;;;;348243;28;1087;-57
2023/12/19 00:55:46;;;;;;;13.05;9.65;;;7.60;62.00;;;;;;348304;28;882;-57
2023/12/19 00:55:57;;;;;;;12.90;9.65;;;7.60;62.00;;;;;;348254;28;906;-57
2023/12/19 00:56:11;;;;;;;12.50;9.52;;;7.60;62.00;;;;;;348214;28;1102;-56
2023/12/19 00:56:22;;;;;;;12.64;9.10;;;7.60;62.00;;;;;;348245;28;1237;-57
2023/12/19 00:56:33;;;;;;;13.07;9.20;;;7.60;62.00;;;;;;348289;28;1091;-58
2023/12/19 00:56:43;;;;;;;11.73;9.02;;;7.60;62.00;;;;;;348153;28;1475;-57
2023/12/19 00:56:55;;;;;;;12.48;9.60;;;7.60;62.00;;;;;;348303;28;1346;-57
2023/12/19 00:57:06;;;;;;;12.35;9.65;;;7.60;62.00;;;;;;348329;28;1016;-57
2023/12/19 00:57:16;;;;;;;12.18;9.68;;;7.60;62.00;;;;;;348267;28;1087;-56
2023/12/19 00:57:27;;;;;;;12.45;9.70;;;7.60;62.00;;;;;;348293;28;972;-58
2023/12/19 00:57:38;;;;;;;12.35;10.00;;;7.60;62.00;;;;;;348245;28;992;-57
2023/12/19 00:57:49;;;;;;;11.95;9.90;;;7.60;62.00;;;;;;348260;28;1008;-56
2023/12/19 00:58:00;;;;;;;12.05;9.93;;;7.60;62.00;;;;;;348306;28;853;-57
2023/12/19 00:58:11;;;;;;;14.27;10.43;;;7.60;62.00;;;;;;348367;28;896;-57
2023/12/19 00:58:21;;;;;;;14.87;10.47;;;7.60;62.00;;;;;;348236;28;1037;-57
2023/12/19 00:58:32;;;;;;;14.52;10.38;;;7.60;62.00;;;;;;348305;28;1215;-57
2023/12/19 00:58:43;;;;;;;13.57;9.90;;;7.60;62.00;;;;;;348300;28;1166;-58
2023/12/19 00:58:54;;;;;;;13.93;10.00;;;7.60;62.00;;;;;;348305;28;1607;-57
2023/12/19 00:59:05;;;;;;;14.38;10.55;;;7.60;62.10;;;;;;348300;28;1071;-57